ΕΜΥ, Εθνική Μετεωρολογική Υπηρεσία - Δελτία Καιρού, Προγνώσεις

ΑΕΡΟΝΑΥΤΙΛΙΑ

GREEK AIRPORTS CODES

LGSY 221150Z 29010KT 9999 FEW014 SCT020 18/13 Q1014 RMK SCT080=

EUROPEAN AIRPORTS CODES

LFPO 221130Z 14009KT 110V170 CAVOK 11/05 Q0999 NOSIG=